createdAt,value
2018-04-02T00:01:08.226Z,56.50
2018-04-02T00:02:48.369Z,54.00
2018-04-02T00:04:25.684Z,59.25
2018-04-02T00:06:03.546Z,57.00
2018-04-02T00:07:43.233Z,58.25
2018-04-02T00:09:21.330Z,53.25
2018-04-02T00:10:58.862Z,55.25
2018-04-02T00:12:37.886Z,57.00
2018-04-02T00:14:15.787Z,55.50
2018-04-02T00:15:54.077Z,57.25
2018-04-02T00:17:31.509Z,55.00
2018-04-02T00:19:08.793Z,52.25
2018-04-02T00:20:46.277Z,56.00
2018-04-02T00:22:23.951Z,57.00
2018-04-02T00:24:01.689Z,54.50
2018-04-02T00:25:39.430Z,56.50
2018-04-02T00:27:16.959Z,56.00
2018-04-02T00:28:54.726Z,54.25
2018-04-02T00:30:32.901Z,54.00
2018-04-02T00:32:11.108Z,56.50
2018-04-02T00:33:48.718Z,56.75
2018-04-02T00:35:26.777Z,55.00
2018-04-02T00:37:05.341Z,55.50
2018-04-02T00:38:43.052Z,53.00
2018-04-02T00:40:21.072Z,59.50
2018-04-02T00:41:59.736Z,55.50
2018-04-02T00:43:37.263Z,58.00
2018-04-02T00:45:18.151Z,51.50
2018-04-02T00:46:57.518Z,53.25
2018-04-02T00:48:35.518Z,54.75
2018-04-02T00:50:14.657Z,55.75
2018-04-02T00:51:52.424Z,54.75
2018-04-02T00:53:30.164Z,52.00
2018-04-02T00:55:07.789Z,53.25
2018-04-02T00:56:46.532Z,51.25
2018-04-02T00:58:24.532Z,55.00
2018-04-02T01:00:03.622Z,55.00
2018-04-02T01:01:42.703Z,55.75
2018-04-02T01:03:20.821Z,53.75
2018-04-02T01:05:00.737Z,54.00
2018-04-02T01:06:38.908Z,54.00
2018-04-02T01:08:17.365Z,53.75
2018-04-02T01:09:55.177Z,56.75
2018-04-02T01:11:33.424Z,54.25
2018-04-02T01:13:12.632Z,52.50
2018-04-02T01:14:52.435Z,50.75
2018-04-02T01:16:30.540Z,53.25
2018-04-02T01:18:08.639Z,55.75
2018-04-02T01:19:47.699Z,49.50
2018-04-02T01:21:25.833Z,49.75
2018-04-02T01:23:04.026Z,52.50
2018-04-02T01:24:41.577Z,53.25
2018-04-02T01:26:19.375Z,56.50
2018-04-02T01:27:57.688Z,54.25
2018-04-02T01:29:35.534Z,50.50
2018-04-02T01:31:13.724Z,54.00
2018-04-02T01:32:52.419Z,53.75
2018-04-02T01:34:31.017Z,58.00
2018-04-02T01:36:09.088Z,56.75
2018-04-02T01:37:46.721Z,55.00
2018-04-02T01:39:24.357Z,57.50
2018-04-02T01:41:02.139Z,55.50
2018-04-02T01:42:43.041Z,52.50
2018-04-02T01:44:23.892Z,52.50
2018-04-02T01:46:03.483Z,56.75
2018-04-02T01:47:43.438Z,56.50
2018-04-02T01:49:21.606Z,56.25
2018-04-02T01:51:00.926Z,53.75
2018-04-02T01:52:42.298Z,50.75
2018-04-02T01:54:22.204Z,53.25
2018-04-02T01:55:59.652Z,45.75
2018-04-02T01:57:37.355Z,50.75
2018-04-02T01:59:15.154Z,50.25
2018-04-02T02:00:52.750Z,50.25
2018-04-02T02:02:30.860Z,49.25
2018-04-02T02:04:09.521Z,49.00
2018-04-02T02:05:46.388Z,47.25
2018-04-02T02:07:24.805Z,52.00
2018-04-02T02:09:03.547Z,52.75
2018-04-02T02:10:41.094Z,50.00
2018-04-02T02:12:17.896Z,49.75
2018-04-02T02:13:55.636Z,51.50
2018-04-02T02:15:33.038Z,51.75
2018-04-02T02:17:10.083Z,50.50
2018-04-02T02:18:48.770Z,52.00
2018-04-02T02:20:27.441Z,50.50
2018-04-02T02:22:04.842Z,52.75
2018-04-02T02:23:43.239Z,54.25
2018-04-02T02:25:21.141Z,53.75
2018-04-02T02:26:59.628Z,48.50
2018-04-02T02:28:36.424Z,47.75
2018-04-02T02:30:14.723Z,46.75
2018-04-02T02:31:53.479Z,44.50
2018-04-02T02:33:31.822Z,47.75
2018-04-02T02:35:09.231Z,45.75
2018-04-02T02:36:46.992Z,49.75
2018-04-02T02:38:23.917Z,48.25
2018-04-02T02:40:01.885Z,51.25
2018-04-02T02:41:38.895Z,49.00
2018-04-02T02:43:17.331Z,47.25
2018-04-02T02:44:55.102Z,50.75
2018-04-02T02:46:32.789Z,49.75
2018-04-02T02:48:10.467Z,48.25
2018-04-02T02:49:48.230Z,49.75
2018-04-02T02:51:25.117Z,50.75
2018-04-02T02:54:43.764Z,49.75
2018-04-02T02:56:21.277Z,53.25
2018-04-02T02:57:58.992Z,49.75
2018-04-02T02:59:38.075Z,47.25
2018-04-02T03:01:16.026Z,50.25
2018-04-02T03:02:53.643Z,50.00
2018-04-02T03:04:30.987Z,48.00
2018-04-02T03:06:09.401Z,48.75
2018-04-02T03:07:47.677Z,48.75
2018-04-02T03:09:26.163Z,49.25
2018-04-02T03:11:04.895Z,48.25
2018-04-02T03:12:42.776Z,49.25
2018-04-02T03:15:48.543Z,50.75
2018-04-02T03:17:26.129Z,53.25
2018-04-02T03:19:06.199Z,51.00
2018-04-02T03:20:45.529Z,55.25
2018-04-02T03:22:23.425Z,53.25
2018-04-02T03:24:06.372Z,52.00
2018-04-02T03:27:42.302Z,48.25
2018-04-02T03:29:20.341Z,49.75
2018-04-02T03:31:01.420Z,49.75
2018-04-02T03:32:40.399Z,51.25
2018-04-02T03:34:18.667Z,50.00
2018-04-02T03:35:56.071Z,51.25
2018-04-02T03:37:33.560Z,50.25
2018-04-02T03:39:11.465Z,51.25
2018-04-02T03:40:49.950Z,54.25
2018-04-02T03:42:26.953Z,54.75
2018-04-02T03:44:05.806Z,49.75
2018-04-02T03:45:43.454Z,50.50
2018-04-02T03:47:20.399Z,50.75
2018-04-02T03:48:57.855Z,51.00
2018-04-02T03:50:35.418Z,50.25
2018-04-02T03:52:12.561Z,50.50
2018-04-02T03:53:51.110Z,53.50
2018-04-02T03:55:28.313Z,48.75
2018-04-02T03:57:08.014Z,48.00
2018-04-02T03:58:45.888Z,51.50
2018-04-02T04:00:27.086Z,55.50
2018-04-02T04:02:04.633Z,52.75
2018-04-02T04:03:42.845Z,53.25
2018-04-02T04:05:21.105Z,48.00
2018-04-02T04:06:58.094Z,51.50
2018-04-02T04:08:35.479Z,54.00
2018-04-02T04:10:13.720Z,50.50
2018-04-02T04:11:50.818Z,54.75
2018-04-02T04:13:28.895Z,54.50
2018-04-02T04:15:08.015Z,49.50
2018-04-02T04:16:45.011Z,53.00
2018-04-02T04:18:22.938Z,53.25
2018-04-02T04:20:00.896Z,57.75
2018-04-02T04:21:38.742Z,51.25
2018-04-02T04:23:17.047Z,50.75
2018-04-02T04:24:57.181Z,49.75
2018-04-02T04:26:34.619Z,49.50
2018-04-02T04:28:12.886Z,50.75
2018-04-02T04:29:50.912Z,50.25
2018-04-02T04:31:28.583Z,54.50
2018-04-02T04:33:06.934Z,49.75
2018-04-02T04:34:44.159Z,47.50
2018-04-02T04:36:21.278Z,51.75
2018-04-02T04:37:59.887Z,50.25
2018-04-02T04:39:37.209Z,48.75
2018-04-02T04:41:14.803Z,46.25
2018-04-02T04:42:52.403Z,44.50
2018-04-02T04:44:29.621Z,46.75
2018-04-02T04:46:08.812Z,49.00
2018-04-02T04:49:17.258Z,48.50
2018-04-02T04:50:55.471Z,49.75
2018-04-02T04:52:33.024Z,41.75
2018-04-02T04:54:10.821Z,47.25
2018-04-02T04:55:47.777Z,50.50
2018-04-02T04:57:25.012Z,50.50
2018-04-02T04:59:03.314Z,48.25
2018-04-02T05:00:41.117Z,50.00
2018-04-02T05:02:18.643Z,52.50
2018-04-02T05:03:56.365Z,49.75
2018-04-02T05:05:34.322Z,52.75
2018-04-02T05:07:12.144Z,52.25
2018-04-02T05:08:50.549Z,51.25
2018-04-02T05:10:28.699Z,49.00
2018-04-02T05:12:05.752Z,50.75
2018-04-02T05:13:43.298Z,49.00
2018-04-02T05:15:20.200Z,47.75
2018-04-02T05:16:57.447Z,48.75
2018-04-02T05:18:35.382Z,49.25
2018-04-02T05:20:12.253Z,48.75
2018-04-02T05:21:50.121Z,50.25
2018-04-02T05:23:27.366Z,48.50
2018-04-02T05:25:05.626Z,39.25
2018-04-02T05:26:42.724Z,49.25
2018-04-02T05:28:19.992Z,46.75
2018-04-02T05:29:57.792Z,37.00
2018-04-02T05:31:35.464Z,44.25
2018-04-02T05:33:13.331Z,44.25
2018-04-02T05:34:50.668Z,47.25
2018-04-02T05:36:27.697Z,41.00
2018-04-02T05:38:05.541Z,44.75
2018-04-02T05:39:43.155Z,35.25
2018-04-02T05:41:21.588Z,37.25
2018-04-02T05:42:58.806Z,42.00
2018-04-02T05:44:36.568Z,44.75
2018-04-02T05:46:14.753Z,43.25
2018-04-02T05:47:52.433Z,41.50
2018-04-02T05:49:30.974Z,45.75
2018-04-02T05:51:09.729Z,43.25
2018-04-02T05:52:46.821Z,36.50
2018-04-02T05:54:24.724Z,38.50
2018-04-02T05:56:03.295Z,45.50
2018-04-02T05:57:41.604Z,33.75
2018-04-02T05:59:18.965Z,40.75
2018-04-02T06:00:57.868Z,45.75
2018-04-02T06:02:35.421Z,38.25
2018-04-02T06:04:13.529Z,42.00
2018-04-02T06:05:50.756Z,26.50
2018-04-02T06:07:28.410Z,41.50
2018-04-02T06:09:07.220Z,44.50
2018-04-02T06:10:44.987Z,35.50
2018-04-02T06:12:21.850Z,34.75
2018-04-02T06:13:59.920Z,43.25
2018-04-02T06:15:37.755Z,34.75
2018-04-02T06:17:15.300Z,41.00
2018-04-02T06:18:54.020Z,35.00
2018-04-02T06:20:31.657Z,34.75
2018-04-02T06:22:10.462Z,37.75
2018-04-02T06:23:48.147Z,31.00
2018-04-02T06:25:25.100Z,38.50
2018-04-02T06:27:02.500Z,39.75
2018-04-02T06:28:40.411Z,39.50
2018-04-02T06:30:20.894Z,38.00
2018-04-02T06:31:58.810Z,36.75
2018-04-02T06:33:37.022Z,38.00
2018-04-02T06:35:14.851Z,32.25
2018-04-02T06:36:52.412Z,32.25
2018-04-02T06:38:30.300Z,32.25
2018-04-02T06:40:08.824Z,29.25
2018-04-02T06:41:46.729Z,40.50
2018-04-02T06:43:24.633Z,38.00
2018-04-02T06:45:02.703Z,35.00
2018-04-02T06:46:40.552Z,24.75
2018-04-02T06:48:18.938Z,39.75
2018-04-02T06:49:56.603Z,37.00
2018-04-02T06:51:34.921Z,33.50
2018-04-02T06:53:13.388Z,36.00
2018-04-02T06:54:51.925Z,37.00
2018-04-02T06:56:29.896Z,26.25
2018-04-02T06:58:07.927Z,25.00
2018-04-02T06:59:45.458Z,35.75
2018-04-02T07:01:23.406Z,29.00
2018-04-02T07:03:01.109Z,30.75
2018-04-02T07:04:39.418Z,30.50
2018-04-02T07:06:17.024Z,29.00
2018-04-02T07:07:55.388Z,32.75
2018-04-02T07:09:33.265Z,29.25
2018-04-02T07:11:11.613Z,26.75
2018-04-02T07:12:48.954Z,27.00
2018-04-02T07:14:26.571Z,32.00
2018-04-02T07:16:05.287Z,30.25
2018-04-02T07:17:42.943Z,28.50
2018-04-02T07:19:20.991Z,31.00
2018-04-02T07:20:59.236Z,21.25
2018-04-02T07:22:37.678Z,19.75
2018-04-02T07:24:17.898Z,24.50
2018-04-02T07:25:56.356Z,31.00
2018-04-02T07:27:34.524Z,29.00
2018-04-02T07:29:12.768Z,24.00
2018-04-02T07:30:51.128Z,14.75
2018-04-02T07:32:28.602Z,28.00
2018-04-02T07:34:06.511Z,29.75
2018-04-02T07:35:45.107Z,20.00
2018-04-02T07:37:22.738Z,21.25
2018-04-02T07:39:01.098Z,30.25
2018-04-02T07:40:38.545Z,28.25
2018-04-02T07:42:17.181Z,26.00
2018-04-02T07:43:55.818Z,11.00
2018-04-02T07:45:33.402Z,29.00
2018-04-02T07:47:11.480Z,20.00
2018-04-02T07:48:49.346Z,32.25
2018-04-02T07:50:26.856Z,32.00
2018-04-02T07:52:04.899Z,21.25
2018-04-02T07:53:42.408Z,19.50
2018-04-02T07:55:19.801Z,20.50
2018-04-02T07:56:57.249Z,18.50
2018-04-02T07:58:34.884Z,18.00
2018-04-02T08:00:15.830Z,14.25
2018-04-02T08:01:53.870Z,11.25
2018-04-02T08:03:31.740Z,20.75
2018-04-02T08:05:10.045Z,26.00
2018-04-02T08:06:47.935Z,14.75
2018-04-02T08:08:25.471Z,17.50
2018-04-02T08:10:03.418Z,22.00
2018-04-02T08:11:41.551Z,16.75
2018-04-02T08:13:21.900Z,14.25
2018-04-02T08:14:59.184Z,14.75
2018-04-02T08:16:37.485Z,14.00
2018-04-02T08:18:16.033Z,15.75
2018-04-02T08:19:54.864Z,14.00
2018-04-02T08:21:32.311Z,25.00
2018-04-02T08:23:10.849Z,28.75
2018-04-02T08:24:48.733Z,10.50
2018-04-02T08:26:27.153Z,24.25
2018-04-02T08:28:05.596Z,9.00
2018-04-02T08:29:43.401Z,13.00
2018-04-02T08:31:22.053Z,16.75
2018-04-02T08:32:59.919Z,20.75
2018-04-02T08:34:37.190Z,31.00
2018-04-02T08:36:15.267Z,21.25
2018-04-02T08:37:52.533Z,15.50
2018-04-02T08:39:32.437Z,21.25
2018-04-02T08:41:09.629Z,19.00
2018-04-02T08:42:47.208Z,27.25
2018-04-02T08:44:24.569Z,16.25
2018-04-02T08:46:01.889Z,25.25
2018-04-02T08:47:39.742Z,26.75
2018-04-02T08:49:16.868Z,26.75
2018-04-02T08:50:54.239Z,30.75
2018-04-02T08:52:32.087Z,26.00
2018-04-02T08:54:10.283Z,29.75
2018-04-02T08:55:47.524Z,19.00
2018-04-02T08:57:27.110Z,28.50
2018-04-02T08:59:05.541Z,29.50
2018-04-02T09:00:43.350Z,23.50
2018-04-02T09:02:20.963Z,29.75
2018-04-02T09:03:58.279Z,29.75
2018-04-02T09:05:36.424Z,31.00
2018-04-02T09:07:14.140Z,30.00
2018-04-02T09:08:51.664Z,32.00
2018-04-02T09:10:28.920Z,29.75
2018-04-02T09:12:06.350Z,29.00
2018-04-02T09:13:43.765Z,27.75
2018-04-02T09:15:22.059Z,28.00
2018-04-02T09:17:02.752Z,23.00
2018-04-02T09:18:41.004Z,18.75
2018-04-02T09:20:18.194Z,19.25
2018-04-02T09:21:56.881Z,28.00
2018-04-02T09:23:35.075Z,29.00
2018-04-02T09:25:12.212Z,25.25
2018-04-02T09:26:49.523Z,29.25
2018-04-02T09:28:28.714Z,27.50
2018-04-02T09:30:05.967Z,28.00
2018-04-02T09:31:43.516Z,25.00
2018-04-02T09:33:21.958Z,20.00
2018-04-02T09:34:59.466Z,19.25
2018-04-02T09:36:36.471Z,25.75
2018-04-02T09:38:13.713Z,22.00
2018-04-02T09:39:52.112Z,23.75
2018-04-02T09:41:29.701Z,25.75
2018-04-02T09:43:06.655Z,27.50
2018-04-02T09:44:43.883Z,26.50
2018-04-02T09:46:21.633Z,24.00
2018-04-02T09:47:59.421Z,24.50
2018-04-02T09:49:37.310Z,26.00
2018-04-02T09:51:15.248Z,24.00
2018-04-02T09:52:52.823Z,16.75
2018-04-02T09:54:30.701Z,18.75
2018-04-02T09:56:08.352Z,24.75
2018-04-02T09:57:45.550Z,23.75
2018-04-02T09:59:22.610Z,26.00
2018-04-02T10:01:01.794Z,25.00
2018-04-02T10:02:43.663Z,25.75
2018-04-02T10:04:22.612Z,26.25
2018-04-02T10:06:00.239Z,24.25
2018-04-02T10:07:37.729Z,17.00
2018-04-02T10:09:16.226Z,22.25
2018-04-02T10:10:53.259Z,23.50
2018-04-02T10:12:30.376Z,23.50
2018-04-02T10:14:08.506Z,15.00
2018-04-02T10:15:46.190Z,12.75
2018-04-02T10:17:24.901Z,17.75
2018-04-02T10:19:02.073Z,17.50
2018-04-02T10:20:39.999Z,22.00
2018-04-02T10:22:17.534Z,20.25
2018-04-02T10:23:54.631Z,22.00
2018-04-02T10:25:31.681Z,21.50
2018-04-02T10:27:08.663Z,17.50
2018-04-02T10:28:46.418Z,20.50
2018-04-02T10:30:25.013Z,14.75
2018-04-02T10:32:02.394Z,17.75
2018-04-02T10:33:39.715Z,18.50
2018-04-02T10:35:16.805Z,17.75
2018-04-02T10:36:53.907Z,5.50
2018-04-02T10:38:31.911Z,11.25
2018-04-02T10:40:08.971Z,17.75
2018-04-02T10:41:46.178Z,12.75
2018-04-02T10:43:23.437Z,20.25
2018-04-02T10:45:01.138Z,18.00
2018-04-02T10:46:40.453Z,19.00
2018-04-02T10:48:17.720Z,18.75
2018-04-02T10:49:56.156Z,18.50
2018-04-02T10:51:33.196Z,20.50
2018-04-02T10:53:10.189Z,18.25
2018-04-02T10:54:47.300Z,20.75
2018-04-02T10:56:24.590Z,17.50
2018-04-02T10:58:02.284Z,17.50
2018-04-02T10:59:39.905Z,17.00
2018-04-02T11:01:17.669Z,17.25
2018-04-02T11:02:56.192Z,18.75
2018-04-02T11:04:34.969Z,10.50
2018-04-02T11:06:11.982Z,18.00
2018-04-02T11:07:49.405Z,18.00
2018-04-02T11:09:27.735Z,15.75
2018-04-02T11:11:04.889Z,15.25
2018-04-02T11:12:42.969Z,8.00
2018-04-02T11:14:20.043Z,16.25
2018-04-02T11:15:57.660Z,13.00
2018-04-02T11:17:34.783Z,18.50
2018-04-02T11:19:12.909Z,20.00
2018-04-02T11:20:50.404Z,16.00
2018-04-02T11:22:31.017Z,14.25
2018-04-02T11:24:08.204Z,14.75
2018-04-02T11:25:45.570Z,11.50
2018-04-02T11:27:26.721Z,16.75
2018-04-02T11:29:04.136Z,16.50
2018-04-02T11:30:42.195Z,14.50
2018-04-02T11:32:19.738Z,20.00
2018-04-02T11:33:57.744Z,16.00
2018-04-02T11:35:35.484Z,11.25
2018-04-02T11:37:13.757Z,17.25
2018-04-02T11:38:51.689Z,16.00
2018-04-02T11:40:29.071Z,10.75
2018-04-02T11:42:06.270Z,9.00
2018-04-02T11:43:43.231Z,11.25
2018-04-02T11:45:20.740Z,11.00
2018-04-02T11:46:58.437Z,10.25
2018-04-02T11:48:35.592Z,11.75
2018-04-02T11:50:13.845Z,12.50
2018-04-02T11:51:51.968Z,12.75
2018-04-02T11:53:29.519Z,14.75
2018-04-02T11:55:07.668Z,10.50
2018-04-02T11:56:44.733Z,13.50
2018-04-02T11:58:22.056Z,11.25
2018-04-02T11:59:59.684Z,11.50
2018-04-02T12:01:37.358Z,13.25
2018-04-02T12:03:14.958Z,14.00
2018-04-02T12:04:52.760Z,13.50
2018-04-02T12:06:30.642Z,12.00
2018-04-02T12:08:08.321Z,11.00
2018-04-02T12:09:46.090Z,5.50
2018-04-02T12:11:23.902Z,12.75
2018-04-02T12:13:01.985Z,12.50
2018-04-02T12:14:40.021Z,13.50
2018-04-02T12:16:17.261Z,13.50
2018-04-02T12:17:54.993Z,15.50
2018-04-02T12:19:32.757Z,15.25
2018-04-02T12:21:10.098Z,15.00
2018-04-02T12:22:47.696Z,15.00
2018-04-02T12:24:24.963Z,11.75
2018-04-02T12:26:02.682Z,14.25
2018-04-02T12:27:40.218Z,13.50
2018-04-02T12:29:17.713Z,12.00
2018-04-02T12:30:55.356Z,7.50
2018-04-02T12:32:33.154Z,12.00
2018-04-02T12:34:10.165Z,11.00
2018-04-02T12:35:50.221Z,14.25
2018-04-02T12:37:27.491Z,11.50
2018-04-02T12:39:06.164Z,9.50
2018-04-02T12:40:43.807Z,12.50
2018-04-02T12:42:21.921Z,11.75
2018-04-02T12:43:59.188Z,11.50
2018-04-02T12:45:36.695Z,4.50
2018-04-02T12:47:13.700Z,12.00
2018-04-02T12:48:51.897Z,10.00
2018-04-02T12:50:28.867Z,11.00
2018-04-02T12:52:06.116Z,11.75
2018-04-02T12:53:43.395Z,10.50
2018-04-02T12:55:21.104Z,10.25
2018-04-02T12:56:58.369Z,9.25
2018-04-02T12:58:35.659Z,11.25
2018-04-02T13:00:12.820Z,6.00
2018-04-02T13:01:53.042Z,12.75
2018-04-02T13:03:30.363Z,10.25
2018-04-02T13:05:07.634Z,11.00
2018-04-02T13:06:45.265Z,10.75
2018-04-02T13:08:22.818Z,9.50
2018-04-02T13:09:59.847Z,12.00
2018-04-02T13:11:36.946Z,11.50
2018-04-02T13:13:14.709Z,11.00
2018-04-02T13:14:53.173Z,9.25
2018-04-02T13:16:30.337Z,12.00
2018-04-02T13:18:07.457Z,12.50
2018-04-02T13:19:45.224Z,12.50
2018-04-02T13:21:23.665Z,11.00
2018-04-02T13:23:01.263Z,10.75
2018-04-02T13:24:38.395Z,9.75
2018-04-02T13:26:16.199Z,10.00
2018-04-02T13:27:54.795Z,9.75
2018-04-02T13:29:32.366Z,9.75
2018-04-02T13:31:09.485Z,8.75
2018-04-02T13:32:46.392Z,9.25
2018-04-02T13:34:27.876Z,9.75
2018-04-02T13:36:06.852Z,10.00
2018-04-02T13:37:45.066Z,9.25
2018-04-02T13:39:23.042Z,9.50
2018-04-02T13:41:00.400Z,9.50
2018-04-02T13:42:37.884Z,11.00
2018-04-02T13:44:14.922Z,9.75
2018-04-02T13:45:54.384Z,9.25
2018-04-02T13:47:32.323Z,8.00
2018-04-02T13:49:09.264Z,9.00
2018-04-02T13:50:46.396Z,15.00
2018-04-02T13:52:23.850Z,3.75
2018-04-02T13:54:00.984Z,5.50
2018-04-02T13:55:38.625Z,5.25
2018-04-02T13:57:16.411Z,4.00
2018-04-02T13:58:54.600Z,5.50
2018-04-02T14:00:32.039Z,3.00
2018-04-02T14:02:09.029Z,5.00
2018-04-02T14:03:46.153Z,3.75
2018-04-02T14:05:23.355Z,2.75
2018-04-02T14:07:02.409Z,4.25
2018-04-02T14:08:40.229Z,3.00
2018-04-02T14:10:17.605Z,3.75
2018-04-02T14:11:54.562Z,2.50
2018-04-02T14:13:32.062Z,1.75
2018-04-02T14:15:10.145Z,3.25
2018-04-02T14:16:48.512Z,3.00
2018-04-02T14:18:25.581Z,3.50
2018-04-02T14:20:03.424Z,4.00
2018-04-02T14:21:41.197Z,3.00
2018-04-02T14:23:19.262Z,4.25
2018-04-02T14:24:57.219Z,2.25
2018-04-02T14:26:34.350Z,4.25
2018-04-02T14:28:11.889Z,4.00
2018-04-02T14:29:49.026Z,7.00
2018-04-02T14:31:26.349Z,5.50
2018-04-02T14:33:03.764Z,2.75
2018-04-02T14:34:41.309Z,5.75
2018-04-02T14:36:18.922Z,5.75
2018-04-02T14:37:56.905Z,2.25
2018-04-02T14:39:33.790Z,3.50
2018-04-02T14:41:11.235Z,4.75
2018-04-02T14:42:48.346Z,3.75
2018-04-02T14:44:26.706Z,6.50
2018-04-02T14:46:06.599Z,4.75
2018-04-02T14:47:47.247Z,5.00
2018-04-02T14:49:25.337Z,4.00
2018-04-02T14:51:03.434Z,6.00
2018-04-02T14:52:40.620Z,4.75
2018-04-02T14:54:18.433Z,5.00
2018-04-02T14:55:56.016Z,4.75
2018-04-02T14:57:34.184Z,2.75
2018-04-02T14:59:11.693Z,6.00
2018-04-02T15:00:50.528Z,5.00
2018-04-02T15:02:27.934Z,4.25
2018-04-02T15:04:06.261Z,5.00
2018-04-02T15:05:43.763Z,4.00
2018-04-02T15:07:21.242Z,5.00
2018-04-02T15:08:59.229Z,2.25
2018-04-02T15:10:36.581Z,3.00
2018-04-02T15:12:13.901Z,5.00
2018-04-02T15:13:51.401Z,4.50
2018-04-02T15:15:30.153Z,4.00
2018-04-02T15:17:07.438Z,5.00
2018-04-02T15:18:45.076Z,3.25
2018-04-02T15:20:22.988Z,4.75
2018-04-02T15:21:59.996Z,4.00
2018-04-02T15:23:37.547Z,4.75
2018-04-02T15:25:15.359Z,3.50
2018-04-02T15:26:53.134Z,4.00
2018-04-02T15:28:30.102Z,4.00
2018-04-02T15:30:07.302Z,4.00
2018-04-02T15:31:45.696Z,4.00
2018-04-02T15:33:22.842Z,4.75
2018-04-02T15:35:00.972Z,3.50
2018-04-02T15:36:39.005Z,3.75
2018-04-02T15:38:16.697Z,3.75
2018-04-02T15:39:54.616Z,4.00
2018-04-02T15:41:33.429Z,4.00
2018-04-02T15:43:11.424Z,3.25
2018-04-02T15:44:49.536Z,3.25
2018-04-02T15:46:27.634Z,4.00
2018-04-02T15:48:05.139Z,3.75
2018-04-02T15:49:44.356Z,2.25
2018-04-02T15:51:22.352Z,1.25
2018-04-02T15:53:00.985Z,3.00
2018-04-02T15:55:06.771Z,5.25
2018-04-02T15:58:10.774Z,1.00
2018-04-02T16:00:13.760Z,2.00
2018-04-02T16:02:02.836Z,3.50
2018-04-02T16:03:40.803Z,1.75
2018-04-02T16:05:18.218Z,2.75
2018-04-02T16:07:00.173Z,1.00
2018-04-02T16:08:51.115Z,3.25
2018-04-02T16:10:42.991Z,2.00
2018-04-02T16:12:26.158Z,3.00
2018-04-02T16:14:04.683Z,3.00
2018-04-02T16:15:42.966Z,3.00
2018-04-02T16:17:20.091Z,3.00
2018-04-02T16:18:57.572Z,3.25
2018-04-02T16:20:35.932Z,1.50
2018-04-02T16:22:13.910Z,2.50
2018-04-02T16:23:51.088Z,2.00
2018-04-02T16:25:28.483Z,1.00
2018-04-02T16:27:06.614Z,3.25
2018-04-02T16:28:45.212Z,1.00
2018-04-02T16:30:22.417Z,1.00
2018-04-02T16:32:02.959Z,0.75
2018-04-02T16:33:40.038Z,2.25
2018-04-02T16:35:17.871Z,1.25
2018-04-02T16:36:55.426Z,5.00
2018-04-02T16:38:33.609Z,2.75
2018-04-02T16:40:11.029Z,2.25
2018-04-02T16:41:48.100Z,3.00
2018-04-02T16:43:25.528Z,2.75
2018-04-02T16:45:03.351Z,2.25
2018-04-02T16:46:40.611Z,2.75
2018-04-02T16:48:18.907Z,0.50
2018-04-02T16:49:59.458Z,1.25
2018-04-02T16:51:39.257Z,3.75
2018-04-02T16:53:18.034Z,3.75
2018-04-02T16:54:58.836Z,1.50
2018-04-02T16:56:39.400Z,1.25
2018-04-02T16:58:18.948Z,2.50
2018-04-02T16:59:58.224Z,3.25
2018-04-02T17:01:39.364Z,3.00
2018-04-02T17:03:17.152Z,3.00
2018-04-02T17:04:54.499Z,3.50
2018-04-02T17:06:31.720Z,2.25
2018-04-02T17:08:09.021Z,4.00
2018-04-02T17:09:47.632Z,2.00
2018-04-02T17:11:25.810Z,1.00
2018-04-02T17:13:03.153Z,2.75
2018-04-02T17:14:40.927Z,2.00
2018-04-02T17:16:20.086Z,1.00
2018-04-02T17:17:58.195Z,2.50
2018-04-02T17:19:36.357Z,4.00
2018-04-02T17:21:13.807Z,0.00
2018-04-02T17:22:51.874Z,3.25
2018-04-02T17:24:29.778Z,1.75
2018-04-02T17:26:08.171Z,4.25
2018-04-02T17:27:47.475Z,3.75
2018-04-02T17:29:25.342Z,7.00
2018-04-02T17:31:02.886Z,2.50
2018-04-02T17:32:44.298Z,5.00
2018-04-02T17:34:21.504Z,4.00
2018-04-02T17:36:01.878Z,7.25
2018-04-02T17:37:40.326Z,7.00
2018-04-02T17:39:17.462Z,5.00
2018-04-02T17:40:55.850Z,4.50
2018-04-02T17:42:33.923Z,1.25
2018-04-02T17:44:11.985Z,7.50
2018-04-02T17:45:50.907Z,8.00
2018-04-02T17:47:28.394Z,7.00
2018-04-02T17:49:06.061Z,4.50
2018-04-02T17:50:43.302Z,3.75
2018-04-02T17:52:20.913Z,3.00
2018-04-02T17:53:59.313Z,2.75
2018-04-02T17:55:36.800Z,3.50
2018-04-02T17:57:13.920Z,1.00
2018-04-02T17:58:51.261Z,5.50
2018-04-02T18:00:30.746Z,4.75
2018-04-02T18:02:08.667Z,3.50
2018-04-02T18:03:45.743Z,5.00
2018-04-02T18:05:23.250Z,4.25
2018-04-02T18:07:00.595Z,5.75
2018-04-02T18:08:38.833Z,6.25
2018-04-02T18:11:49.780Z,6.00
2018-04-02T18:13:27.935Z,6.00
2018-04-02T18:15:06.022Z,5.25
2018-04-02T18:18:19.445Z,6.25
2018-04-02T18:19:57.927Z,5.00
2018-04-02T18:21:35.820Z,6.00
2018-04-02T18:23:13.100Z,8.00
2018-04-02T18:24:50.430Z,4.00
2018-04-02T18:26:28.055Z,6.00
2018-04-02T18:28:08.442Z,5.00
2018-04-02T18:29:45.522Z,7.00
2018-04-02T18:31:24.259Z,8.50
2018-04-02T18:33:01.370Z,7.00
2018-04-02T18:34:38.630Z,5.00
2018-04-02T18:36:15.949Z,5.00
2018-04-02T18:37:54.992Z,5.75
2018-04-02T18:39:33.141Z,5.50
2018-04-02T18:41:10.666Z,3.25
2018-04-02T18:42:48.791Z,5.75
2018-04-02T18:44:26.191Z,5.00
2018-04-02T18:46:05.479Z,6.50
2018-04-02T18:47:42.812Z,5.50
2018-04-02T18:49:20.825Z,5.00
2018-04-02T18:50:58.127Z,6.00
2018-04-02T18:52:35.093Z,4.25
2018-04-02T18:54:12.333Z,4.50
2018-04-02T18:55:49.748Z,5.00
2018-04-02T18:57:26.740Z,7.00
2018-04-02T18:59:03.653Z,5.75
2018-04-02T19:00:41.173Z,11.50
2018-04-02T19:02:18.568Z,5.50
2018-04-02T19:03:56.378Z,6.50
2018-04-02T19:05:33.582Z,6.75
2018-04-02T19:07:10.643Z,6.75
2018-04-02T19:08:48.770Z,6.00
2018-04-02T19:10:25.792Z,5.25
2018-04-02T19:12:04.063Z,5.00
2018-04-02T19:13:41.621Z,6.50
2018-04-02T19:17:15.348Z,8.25
2018-04-02T19:18:52.661Z,2.50
2018-04-02T19:20:29.743Z,2.25
2018-04-02T19:22:07.491Z,11.50
2018-04-02T19:23:44.821Z,4.00
2018-04-02T19:25:25.807Z,3.50
2018-04-02T19:27:03.157Z,6.50
2018-04-02T19:28:44.057Z,3.00
2018-04-02T19:30:24.438Z,5.00
2018-04-02T19:32:03.527Z,5.00
2018-04-02T19:33:42.775Z,5.50
2018-04-02T19:35:21.345Z,7.00
2018-04-02T19:36:58.518Z,4.75
2018-04-02T19:38:35.941Z,4.75
2018-04-02T19:40:15.085Z,5.00
2018-04-02T19:41:53.251Z,7.25
2018-04-02T19:43:32.208Z,6.00
2018-04-02T19:45:10.489Z,6.75
2018-04-02T19:46:47.602Z,15.00
2018-04-02T19:48:25.132Z,7.75
2018-04-02T19:50:03.161Z,32.50
2018-04-02T19:51:40.341Z,8.25
2018-04-02T19:53:18.934Z,9.00
2018-04-02T19:54:56.633Z,21.25
2018-04-02T19:56:33.788Z,6.25
2018-04-02T19:58:11.397Z,6.25
2018-04-02T19:59:48.661Z,2.75
2018-04-02T20:01:25.914Z,6.00
2018-04-02T20:03:04.664Z,2.50
2018-04-02T20:04:42.897Z,5.00
2018-04-02T20:06:20.471Z,10.25
2018-04-02T20:07:58.743Z,1.50
2018-04-02T20:09:36.665Z,1.75
2018-04-02T20:11:14.655Z,6.25
2018-04-02T20:12:52.460Z,3.50
2018-04-02T20:14:29.739Z,39.00
2018-04-02T20:16:13.931Z,2.50
2018-04-02T20:17:51.009Z,25.25
2018-04-02T20:19:28.659Z,8.25
2018-04-02T20:21:05.682Z,6.25
2018-04-02T20:22:43.875Z,7.75
2018-04-02T20:24:21.867Z,6.25
2018-04-02T20:25:59.702Z,3.00
2018-04-02T20:27:38.561Z,4.00
2018-04-02T20:29:16.830Z,3.50
2018-04-02T20:30:54.914Z,10.75
2018-04-02T20:32:32.645Z,6.00
2018-04-02T20:34:09.955Z,7.00
2018-04-02T20:35:47.444Z,5.25
2018-04-02T20:37:24.827Z,6.50
2018-04-02T20:39:03.389Z,5.50
2018-04-02T20:40:41.100Z,5.25
2018-04-02T20:42:18.103Z,3.00
2018-04-02T20:43:55.251Z,2.25
2018-04-02T20:45:33.188Z,6.00
2018-04-02T20:47:10.257Z,5.75
2018-04-02T20:48:48.676Z,2.50
2018-04-02T20:50:25.743Z,2.00
2018-04-02T20:52:05.159Z,5.75
2018-04-02T20:53:43.502Z,3.00
2018-04-02T20:55:24.926Z,5.00
2018-04-02T20:57:07.510Z,4.50
2018-04-02T20:58:55.907Z,7.00
2018-04-02T21:00:33.663Z,3.00
2018-04-02T21:02:11.152Z,4.00
2018-04-02T21:03:48.623Z,6.00
2018-04-02T21:05:26.141Z,4.00
2018-04-02T21:07:03.740Z,7.50
2018-04-02T21:08:44.016Z,2.75
2018-04-02T21:10:24.573Z,5.25
2018-04-02T21:12:02.429Z,4.50
2018-04-02T21:13:40.878Z,6.75
2018-04-02T21:15:25.091Z,34.25
2018-04-02T21:17:03.346Z,16.50
2018-04-02T21:18:40.778Z,6.00
2018-04-02T21:20:17.790Z,8.50
2018-04-02T21:21:57.262Z,4.00
2018-04-02T21:23:34.833Z,6.00
2018-04-02T21:25:12.532Z,5.50
2018-04-02T21:26:51.164Z,7.00
2018-04-02T21:28:29.250Z,6.50
2018-04-02T21:30:21.089Z,7.00
2018-04-02T21:32:06.818Z,8.50
2018-04-02T21:33:45.672Z,4.00